sensor_id;sensor_type;location;lat;lon;timestamp;P1;durP1;ratioP1;P2;durP2;ratioP2
6832;SDS011;3454;42.654;23.378;2023-05-20T00:00:02;11.30;;;6.80;;
6832;SDS011;3454;42.654;23.378;2023-05-20T00:02:28;12.77;;;7.43;;
6832;SDS011;3454;42.654;23.378;2023-05-20T00:04:53;11.33;;;6.83;;
6832;SDS011;3454;42.654;23.378;2023-05-20T00:07:19;11.87;;;7.47;;
6832;SDS011;3454;42.654;23.378;2023-05-20T00:09:44;8.52;;;6.80;;
6832;SDS011;3454;42.654;23.378;2023-05-20T00:12:10;8.77;;;6.70;;
6832;SDS011;3454;42.654;23.378;2023-05-20T00:14:35;9.43;;;6.67;;
6832;SDS011;3454;42.654;23.378;2023-05-20T00:17:00;8.85;;;6.70;;
6832;SDS011;3454;42.654;23.378;2023-05-20T00:19:26;10.00;;;6.47;;
6832;SDS011;3454;42.654;23.378;2023-05-20T00:21:51;9.93;;;6.90;;
6832;SDS011;3454;42.654;23.378;2023-05-20T00:24:16;11.02;;;6.63;;
6832;SDS011;3454;42.654;23.378;2023-05-20T00:26:42;14.52;;;6.95;;
6832;SDS011;3454;42.654;23.378;2023-05-20T00:29:07;11.27;;;6.47;;
6832;SDS011;3454;42.654;23.378;2023-05-20T00:31:33;10.65;;;6.38;;
6832;SDS011;3454;42.654;23.378;2023-05-20T00:33:58;12.37;;;6.87;;
6832;SDS011;3454;42.654;23.378;2023-05-20T00:36:23;10.40;;;6.70;;
6832;SDS011;3454;42.654;23.378;2023-05-20T00:38:49;9.67;;;6.67;;
6832;SDS011;3454;42.654;23.378;2023-05-20T00:41:14;13.05;;;7.60;;
6832;SDS011;3454;42.654;23.378;2023-05-20T00:43:40;8.73;;;6.07;;
6832;SDS011;3454;42.654;23.378;2023-05-20T00:46:05;9.60;;;6.93;;
6832;SDS011;3454;42.654;23.378;2023-05-20T00:48:32;9.20;;;6.43;;
6832;SDS011;3454;42.654;23.378;2023-05-20T00:51:06;9.83;;;5.93;;
6832;SDS011;3454;42.654;23.378;2023-05-20T00:53:32;8.37;;;6.13;;
6832;SDS011;3454;42.654;23.378;2023-05-20T00:55:59;10.90;;;6.30;;
6832;SDS011;3454;42.654;23.378;2023-05-20T00:58:24;8.13;;;5.70;;
6832;SDS011;3454;42.654;23.378;2023-05-20T01:00:50;11.33;;;6.97;;
6832;SDS011;3454;42.654;23.378;2023-05-20T01:03:15;8.90;;;6.53;;
6832;SDS011;3454;42.654;23.378;2023-05-20T01:05:42;10.30;;;6.33;;
6832;SDS011;3454;42.654;23.378;2023-05-20T01:08:07;10.60;;;6.17;;
6832;SDS011;3454;42.654;23.378;2023-05-20T01:10:33;9.57;;;6.87;;
6832;SDS011;3454;42.654;23.378;2023-05-20T01:13:04;12.03;;;6.87;;
6832;SDS011;3454;42.654;23.378;2023-05-20T01:15:33;10.70;;;6.33;;
6832;SDS011;3454;42.654;23.378;2023-05-20T01:18:00;8.23;;;6.33;;
6832;SDS011;3454;42.654;23.378;2023-05-20T01:20:30;9.97;;;6.33;;
6832;SDS011;3454;42.654;23.378;2023-05-20T01:22:57;9.77;;;6.43;;
6832;SDS011;3454;42.654;23.378;2023-05-20T01:25:23;14.30;;;7.43;;
6832;SDS011;3454;42.654;23.378;2023-05-20T01:27:49;9.77;;;6.70;;
6832;SDS011;3454;42.654;23.378;2023-05-20T01:30:16;11.00;;;7.17;;
6832;SDS011;3454;42.654;23.378;2023-05-20T01:32:47;8.37;;;6.40;;
6832;SDS011;3454;42.654;23.378;2023-05-20T01:35:18;12.77;;;6.67;;
6832;SDS011;3454;42.654;23.378;2023-05-20T01:37:44;10.93;;;7.67;;
6832;SDS011;3454;42.654;23.378;2023-05-20T01:40:13;12.93;;;7.30;;
6832;SDS011;3454;42.654;23.378;2023-05-20T01:42:40;10.03;;;6.77;;
6832;SDS011;3454;42.654;23.378;2023-05-20T01:45:07;9.33;;;6.47;;
6832;SDS011;3454;42.654;23.378;2023-05-20T01:47:33;10.93;;;6.47;;
6832;SDS011;3454;42.654;23.378;2023-05-20T01:49:58;8.13;;;6.10;;
6832;SDS011;3454;42.654;23.378;2023-05-20T01:52:24;8.83;;;6.50;;
6832;SDS011;3454;42.654;23.378;2023-05-20T01:54:49;14.17;;;7.70;;
6832;SDS011;3454;42.654;23.378;2023-05-20T01:57:22;10.68;;;6.28;;
6832;SDS011;3454;42.654;23.378;2023-05-20T01:59:48;11.80;;;6.90;;
6832;SDS011;3454;42.654;23.378;2023-05-20T02:02:14;14.93;;;7.07;;
6832;SDS011;3454;42.654;23.378;2023-05-20T02:04:41;8.93;;;6.87;;
6832;SDS011;3454;42.654;23.378;2023-05-20T02:07:09;11.40;;;7.10;;
6832;SDS011;3454;42.654;23.378;2023-05-20T02:09:35;10.57;;;6.53;;
6832;SDS011;3454;42.654;23.378;2023-05-20T02:12:01;11.23;;;6.93;;
6832;SDS011;3454;42.654;23.378;2023-05-20T02:14:27;8.37;;;5.93;;
6832;SDS011;3454;42.654;23.378;2023-05-20T02:16:52;10.73;;;6.07;;
6832;SDS011;3454;42.654;23.378;2023-05-20T02:19:17;12.07;;;6.67;;
6832;SDS011;3454;42.654;23.378;2023-05-20T02:21:47;12.97;;;6.50;;
6832;SDS011;3454;42.654;23.378;2023-05-20T02:24:14;11.63;;;6.80;;
6832;SDS011;3454;42.654;23.378;2023-05-20T02:26:40;11.20;;;6.23;;
6832;SDS011;3454;42.654;23.378;2023-05-20T02:29:06;10.77;;;7.23;;
6832;SDS011;3454;42.654;23.378;2023-05-20T02:31:31;9.43;;;6.37;;
6832;SDS011;3454;42.654;23.378;2023-05-20T02:33:56;8.53;;;6.07;;
6832;SDS011;3454;42.654;23.378;2023-05-20T02:36:28;8.47;;;6.17;;
6832;SDS011;3454;42.654;23.378;2023-05-20T02:38:56;8.67;;;6.13;;
6832;SDS011;3454;42.654;23.378;2023-05-20T02:41:21;9.77;;;6.20;;
6832;SDS011;3454;42.654;23.378;2023-05-20T02:43:47;7.93;;;5.80;;
6832;SDS011;3454;42.654;23.378;2023-05-20T02:46:13;10.00;;;7.57;;
6832;SDS011;3454;42.654;23.378;2023-05-20T02:48:39;8.63;;;6.17;;
6832;SDS011;3454;42.654;23.378;2023-05-20T02:51:05;10.53;;;6.77;;
6832;SDS011;3454;42.654;23.378;2023-05-20T02:53:30;12.00;;;6.57;;
6832;SDS011;3454;42.654;23.378;2023-05-20T02:55:56;10.00;;;6.50;;
6832;SDS011;3454;42.654;23.378;2023-05-20T02:58:22;7.90;;;6.07;;
6832;SDS011;3454;42.654;23.378;2023-05-20T03:00:50;8.70;;;5.80;;
6832;SDS011;3454;42.654;23.378;2023-05-20T03:03:16;8.93;;;5.60;;
6832;SDS011;3454;42.654;23.378;2023-05-20T03:05:42;9.47;;;6.30;;
6832;SDS011;3454;42.654;23.378;2023-05-20T03:08:10;9.97;;;5.53;;
6832;SDS011;3454;42.654;23.378;2023-05-20T03:10:38;7.93;;;5.90;;
6832;SDS011;3454;42.654;23.378;2023-05-20T03:13:05;8.73;;;6.23;;
6832;SDS011;3454;42.654;23.378;2023-05-20T03:15:35;10.73;;;7.23;;
6832;SDS011;3454;42.654;23.378;2023-05-20T03:18:01;9.20;;;5.53;;
6832;SDS011;3454;42.654;23.378;2023-05-20T03:20:27;9.60;;;6.27;;
6832;SDS011;3454;42.654;23.378;2023-05-20T03:22:53;9.90;;;6.03;;
6832;SDS011;3454;42.654;23.378;2023-05-20T03:25:20;9.17;;;6.07;;
6832;SDS011;3454;42.654;23.378;2023-05-20T03:27:46;8.03;;;6.60;;
6832;SDS011;3454;42.654;23.378;2023-05-20T03:30:12;8.53;;;5.90;;
6832;SDS011;3454;42.654;23.378;2023-05-20T03:32:38;8.27;;;5.80;;
6832;SDS011;3454;42.654;23.378;2023-05-20T03:35:04;9.23;;;6.20;;
6832;SDS011;3454;42.654;23.378;2023-05-20T03:37:30;12.73;;;6.50;;
6832;SDS011;3454;42.654;23.378;2023-05-20T03:39:56;7.47;;;5.80;;
6832;SDS011;3454;42.654;23.378;2023-05-20T03:42:21;9.13;;;6.17;;
6832;SDS011;3454;42.654;23.378;2023-05-20T03:44:46;9.97;;;6.20;;
6832;SDS011;3454;42.654;23.378;2023-05-20T03:47:12;10.80;;;6.57;;
6832;SDS011;3454;42.654;23.378;2023-05-20T03:49:37;11.50;;;6.30;;
6832;SDS011;3454;42.654;23.378;2023-05-20T03:52:05;10.97;;;7.13;;
6832;SDS011;3454;42.654;23.378;2023-05-20T03:54:31;10.73;;;6.53;;
6832;SDS011;3454;42.654;23.378;2023-05-20T03:56:56;7.47;;;5.47;;
6832;SDS011;3454;42.654;23.378;2023-05-20T03:59:21;10.50;;;4.90;;
6832;SDS011;3454;42.654;23.378;2023-05-20T04:01:47;10.20;;;5.60;;
6832;SDS011;3454;42.654;23.378;2023-05-20T04:04:13;8.50;;;5.53;;
6832;SDS011;3454;42.654;23.378;2023-05-20T04:06:45;9.37;;;5.03;;
6832;SDS011;3454;42.654;23.378;2023-05-20T04:09:11;11.83;;;5.40;;
6832;SDS011;3454;42.654;23.378;2023-05-20T04:11:36;13.30;;;5.33;;
6832;SDS011;3454;42.654;23.378;2023-05-20T04:14:02;9.27;;;5.47;;
6832;SDS011;3454;42.654;23.378;2023-05-20T04:16:27;9.47;;;5.30;;
6832;SDS011;3454;42.654;23.378;2023-05-20T04:18:53;8.17;;;5.73;;
6832;SDS011;3454;42.654;23.378;2023-05-20T04:21:19;7.70;;;5.60;;
6832;SDS011;3454;42.654;23.378;2023-05-20T04:23:45;12.40;;;7.43;;
6832;SDS011;3454;42.654;23.378;2023-05-20T04:26:10;7.13;;;5.17;;
6832;SDS011;3454;42.654;23.378;2023-05-20T04:28:36;8.07;;;5.37;;
6832;SDS011;3454;42.654;23.378;2023-05-20T04:31:02;8.97;;;5.43;;
6832;SDS011;3454;42.654;23.378;2023-05-20T04:33:29;10.90;;;5.67;;
6832;SDS011;3454;42.654;23.378;2023-05-20T04:35:55;7.53;;;5.00;;
6832;SDS011;3454;42.654;23.378;2023-05-20T04:38:23;6.57;;;4.90;;
6832;SDS011;3454;42.654;23.378;2023-05-20T04:40:54;8.37;;;5.17;;
6832;SDS011;3454;42.654;23.378;2023-05-20T04:43:22;7.50;;;4.60;;
6832;SDS011;3454;42.654;23.378;2023-05-20T04:45:48;7.97;;;4.40;;
6832;SDS011;3454;42.654;23.378;2023-05-20T04:48:14;8.50;;;5.13;;
6832;SDS011;3454;42.654;23.378;2023-05-20T04:50:39;6.80;;;5.07;;
6832;SDS011;3454;42.654;23.378;2023-05-20T04:53:05;7.83;;;5.57;;
6832;SDS011;3454;42.654;23.378;2023-05-20T04:55:31;7.70;;;5.53;;
6832;SDS011;3454;42.654;23.378;2023-05-20T04:57:57;7.30;;;4.90;;
6832;SDS011;3454;42.654;23.378;2023-05-20T05:00:22;10.90;;;5.03;;
6832;SDS011;3454;42.654;23.378;2023-05-20T05:02:48;7.50;;;4.77;;
6832;SDS011;3454;42.654;23.378;2023-05-20T05:05:13;9.13;;;5.40;;
6832;SDS011;3454;42.654;23.378;2023-05-20T05:07:39;8.30;;;6.00;;
6832;SDS011;3454;42.654;23.378;2023-05-20T05:10:04;7.47;;;5.07;;
6832;SDS011;3454;42.654;23.378;2023-05-20T05:12:30;6.93;;;4.97;;
6832;SDS011;3454;42.654;23.378;2023-05-20T05:14:56;7.17;;;4.90;;
6832;SDS011;3454;42.654;23.378;2023-05-20T05:17:22;7.47;;;4.80;;
6832;SDS011;3454;42.654;23.378;2023-05-20T05:19:48;8.67;;;6.17;;
6832;SDS011;3454;42.654;23.378;2023-05-20T05:22:13;17.07;;;8.23;;
6832;SDS011;3454;42.654;23.378;2023-05-20T05:24:38;11.17;;;7.13;;
6832;SDS011;3454;42.654;23.378;2023-05-20T05:27:04;13.10;;;6.70;;
6832;SDS011;3454;42.654;23.378;2023-05-20T05:29:30;12.90;;;7.20;;
6832;SDS011;3454;42.654;23.378;2023-05-20T05:31:55;14.43;;;7.77;;
6832;SDS011;3454;42.654;23.378;2023-05-20T05:34:20;9.80;;;7.07;;
6832;SDS011;3454;42.654;23.378;2023-05-20T05:36:46;11.68;;;7.53;;
6832;SDS011;3454;42.654;23.378;2023-05-20T05:39:12;12.13;;;7.10;;
6832;SDS011;3454;42.654;23.378;2023-05-20T05:41:37;14.87;;;7.87;;
6832;SDS011;3454;42.654;23.378;2023-05-20T05:44:03;13.05;;;7.97;;
6832;SDS011;3454;42.654;23.378;2023-05-20T05:46:28;12.17;;;7.73;;
6832;SDS011;3454;42.654;23.378;2023-05-20T05:48:54;11.23;;;7.90;;
6832;SDS011;3454;42.654;23.378;2023-05-20T05:51:19;14.93;;;8.32;;
6832;SDS011;3454;42.654;23.378;2023-05-20T05:53:46;15.45;;;7.60;;
6832;SDS011;3454;42.654;23.378;2023-05-20T05:56:11;12.33;;;8.33;;
6832;SDS011;3454;42.654;23.378;2023-05-20T05:58:37;13.18;;;8.40;;
6832;SDS011;3454;42.654;23.378;2023-05-20T06:01:02;12.35;;;7.97;;
6832;SDS011;3454;42.654;23.378;2023-05-20T06:03:28;13.57;;;8.05;;
6832;SDS011;3454;42.654;23.378;2023-05-20T06:05:54;13.27;;;7.50;;
6832;SDS011;3454;42.654;23.378;2023-05-20T06:08:20;11.05;;;7.90;;
6832;SDS011;3454;42.654;23.378;2023-05-20T06:10:47;15.18;;;8.00;;
6832;SDS011;3454;42.654;23.378;2023-05-20T06:13:13;15.15;;;7.55;;
6832;SDS011;3454;42.654;23.378;2023-05-20T06:15:39;10.80;;;7.72;;
6832;SDS011;3454;42.654;23.378;2023-05-20T06:18:05;11.52;;;6.57;;
6832;SDS011;3454;42.654;23.378;2023-05-20T06:20:30;12.07;;;7.57;;
6832;SDS011;3454;42.654;23.378;2023-05-20T06:22:56;12.45;;;7.00;;
6832;SDS011;3454;42.654;23.378;2023-05-20T06:25:21;12.65;;;6.32;;
6832;SDS011;3454;42.654;23.378;2023-05-20T06:27:47;8.15;;;6.00;;
6832;SDS011;3454;42.654;23.378;2023-05-20T06:30:13;6.18;;;5.22;;
6832;SDS011;3454;42.654;23.378;2023-05-20T06:32:38;10.30;;;5.70;;
6832;SDS011;3454;42.654;23.378;2023-05-20T06:35:04;7.70;;;5.43;;
6832;SDS011;3454;42.654;23.378;2023-05-20T06:37:30;7.93;;;4.53;;
6832;SDS011;3454;42.654;23.378;2023-05-20T06:39:55;4.88;;;4.22;;
6832;SDS011;3454;42.654;23.378;2023-05-20T06:42:21;6.15;;;5.13;;
6832;SDS011;3454;42.654;23.378;2023-05-20T06:44:46;7.57;;;5.53;;
6832;SDS011;3454;42.654;23.378;2023-05-20T06:47:15;7.10;;;4.60;;
6832;SDS011;3454;42.654;23.378;2023-05-20T06:49:42;7.07;;;5.22;;
6832;SDS011;3454;42.654;23.378;2023-05-20T06:52:08;8.95;;;4.88;;
6832;SDS011;3454;42.654;23.378;2023-05-20T06:54:33;8.50;;;5.00;;
6832;SDS011;3454;42.654;23.378;2023-05-20T06:57:04;14.07;;;5.43;;
6832;SDS011;3454;42.654;23.378;2023-05-20T06:59:30;5.65;;;5.07;;
6832;SDS011;3454;42.654;23.378;2023-05-20T07:01:56;9.57;;;5.47;;
6832;SDS011;3454;42.654;23.378;2023-05-20T07:04:21;10.55;;;5.95;;
6832;SDS011;3454;42.654;23.378;2023-05-20T07:06:47;8.38;;;6.00;;
6832;SDS011;3454;42.654;23.378;2023-05-20T07:09:12;8.63;;;5.78;;
6832;SDS011;3454;42.654;23.378;2023-05-20T07:11:38;10.68;;;5.85;;
6832;SDS011;3454;42.654;23.378;2023-05-20T07:14:03;9.45;;;5.50;;
6832;SDS011;3454;42.654;23.378;2023-05-20T07:16:29;7.75;;;5.50;;
6832;SDS011;3454;42.654;23.378;2023-05-20T07:18:56;9.55;;;5.97;;
6832;SDS011;3454;42.654;23.378;2023-05-20T07:21:21;7.78;;;5.45;;
6832;SDS011;3454;42.654;23.378;2023-05-20T07:23:47;6.60;;;4.70;;
6832;SDS011;3454;42.654;23.378;2023-05-20T07:26:13;6.05;;;4.55;;
6832;SDS011;3454;42.654;23.378;2023-05-20T07:28:38;7.55;;;5.60;;
6832;SDS011;3454;42.654;23.378;2023-05-20T07:31:04;6.32;;;4.95;;
6832;SDS011;3454;42.654;23.378;2023-05-20T07:33:29;7.28;;;5.20;;
6832;SDS011;3454;42.654;23.378;2023-05-20T07:35:55;7.57;;;5.28;;
6832;SDS011;3454;42.654;23.378;2023-05-20T07:38:20;9.73;;;5.55;;
6832;SDS011;3454;42.654;23.378;2023-05-20T07:40:46;7.35;;;5.28;;
6832;SDS011;3454;42.654;23.378;2023-05-20T07:43:11;10.55;;;6.15;;
6832;SDS011;3454;42.654;23.378;2023-05-20T07:45:36;10.05;;;5.72;;
6832;SDS011;3454;42.654;23.378;2023-05-20T07:48:02;6.78;;;4.90;;
6832;SDS011;3454;42.654;23.378;2023-05-20T07:50:28;10.15;;;5.30;;
6832;SDS011;3454;42.654;23.378;2023-05-20T07:52:54;7.43;;;5.53;;
6832;SDS011;3454;42.654;23.378;2023-05-20T07:55:19;8.38;;;5.93;;
6832;SDS011;3454;42.654;23.378;2023-05-20T07:57:45;10.25;;;5.30;;
6832;SDS011;3454;42.654;23.378;2023-05-20T08:00:10;7.40;;;5.47;;
6832;SDS011;3454;42.654;23.378;2023-05-20T08:02:36;8.65;;;5.25;;
6832;SDS011;3454;42.654;23.378;2023-05-20T08:05:02;6.45;;;5.18;;
6832;SDS011;3454;42.654;23.378;2023-05-20T08:07:29;8.93;;;6.03;;
6832;SDS011;3454;42.654;23.378;2023-05-20T08:09:54;6.43;;;5.43;;
6832;SDS011;3454;42.654;23.378;2023-05-20T08:12:21;8.70;;;5.38;;
6832;SDS011;3454;42.654;23.378;2023-05-20T08:14:46;9.32;;;5.68;;
6832;SDS011;3454;42.654;23.378;2023-05-20T08:17:11;8.45;;;6.07;;
6832;SDS011;3454;42.654;23.378;2023-05-20T08:19:37;8.40;;;6.38;;
6832;SDS011;3454;42.654;23.378;2023-05-20T08:22:02;7.47;;;5.75;;
6832;SDS011;3454;42.654;23.378;2023-05-20T08:24:28;10.85;;;6.57;;
6832;SDS011;3454;42.654;23.378;2023-05-20T08:26:53;7.88;;;6.07;;
6832;SDS011;3454;42.654;23.378;2023-05-20T08:29:19;10.25;;;5.57;;
6832;SDS011;3454;42.654;23.378;2023-05-20T08:31:44;5.80;;;4.93;;
6832;SDS011;3454;42.654;23.378;2023-05-20T08:34:10;7.50;;;5.30;;
6832;SDS011;3454;42.654;23.378;2023-05-20T08:36:35;11.13;;;5.93;;
6832;SDS011;3454;42.654;23.378;2023-05-20T08:39:00;8.38;;;5.57;;
6832;SDS011;3454;42.654;23.378;2023-05-20T08:41:26;6.93;;;5.50;;
6832;SDS011;3454;42.654;23.378;2023-05-20T08:43:51;6.57;;;5.50;;
6832;SDS011;3454;42.654;23.378;2023-05-20T08:46:18;10.48;;;6.07;;
6832;SDS011;3454;42.654;23.378;2023-05-20T08:48:45;10.13;;;6.25;;
6832;SDS011;3454;42.654;23.378;2023-05-20T08:51:11;8.40;;;5.70;;
6832;SDS011;3454;42.654;23.378;2023-05-20T08:53:39;9.52;;;5.22;;
6832;SDS011;3454;42.654;23.378;2023-05-20T08:56:04;8.23;;;6.05;;
6832;SDS011;3454;42.654;23.378;2023-05-20T08:58:31;8.55;;;5.63;;
6832;SDS011;3454;42.654;23.378;2023-05-20T09:00:57;11.75;;;6.03;;
6832;SDS011;3454;42.654;23.378;2023-05-20T09:03:23;11.68;;;5.68;;
6832;SDS011;3454;42.654;23.378;2023-05-20T09:05:49;7.22;;;5.00;;
6832;SDS011;3454;42.654;23.378;2023-05-20T09:08:15;6.97;;;5.20;;
6832;SDS011;3454;42.654;23.378;2023-05-20T09:10:41;8.88;;;5.68;;
6832;SDS011;3454;42.654;23.378;2023-05-20T09:13:07;10.50;;;5.68;;
6832;SDS011;3454;42.654;23.378;2023-05-20T09:15:34;6.70;;;6.00;;
6832;SDS011;3454;42.654;23.378;2023-05-20T09:18:00;7.82;;;5.57;;
6832;SDS011;3454;42.654;23.378;2023-05-20T09:20:31;15.68;;;6.50;;
6832;SDS011;3454;42.654;23.378;2023-05-20T09:22:59;8.65;;;5.95;;
6832;SDS011;3454;42.654;23.378;2023-05-20T09:25:26;8.77;;;5.88;;
6832;SDS011;3454;42.654;23.378;2023-05-20T09:27:52;7.65;;;5.20;;
6832;SDS011;3454;42.654;23.378;2023-05-20T09:30:19;8.73;;;6.32;;
6832;SDS011;3454;42.654;23.378;2023-05-20T09:32:51;8.95;;;5.82;;
6832;SDS011;3454;42.654;23.378;2023-05-20T09:35:17;7.97;;;5.43;;
6832;SDS011;3454;42.654;23.378;2023-05-20T09:37:43;8.55;;;6.00;;
6832;SDS011;3454;42.654;23.378;2023-05-20T09:40:11;7.30;;;5.60;;
6832;SDS011;3454;42.654;23.378;2023-05-20T09:42:53;6.75;;;5.80;;
6832;SDS011;3454;42.654;23.378;2023-05-20T09:45:18;6.82;;;5.65;;
6832;SDS011;3454;42.654;23.378;2023-05-20T09:47:46;9.15;;;5.32;;
6832;SDS011;3454;42.654;23.378;2023-05-20T09:50:12;6.80;;;5.43;;
6832;SDS011;3454;42.654;23.378;2023-05-20T09:52:39;7.85;;;5.72;;
6832;SDS011;3454;42.654;23.378;2023-05-20T09:55:05;7.43;;;6.00;;
6832;SDS011;3454;42.654;23.378;2023-05-20T09:57:34;7.40;;;5.97;;
6832;SDS011;3454;42.654;23.378;2023-05-20T10:00:01;7.18;;;5.82;;
6832;SDS011;3454;42.654;23.378;2023-05-20T10:02:37;7.35;;;5.47;;
6832;SDS011;3454;42.654;23.378;2023-05-20T10:05:03;10.10;;;6.00;;
6832;SDS011;3454;42.654;23.378;2023-05-20T10:16:59;5.75;;;5.00;;
6832;SDS011;3454;42.654;23.378;2023-05-20T10:24:44;9.32;;;4.70;;
6832;SDS011;3454;42.654;23.378;2023-05-20T10:27:11;5.30;;;4.13;;
6832;SDS011;3454;42.654;23.378;2023-05-20T10:29:41;4.97;;;4.47;;
6832;SDS011;3454;42.654;23.378;2023-05-20T10:32:31;8.98;;;4.85;;
6832;SDS011;3454;42.654;23.378;2023-05-20T10:35:07;9.05;;;4.65;;
6832;SDS011;3454;42.654;23.378;2023-05-20T10:37:41;6.22;;;4.32;;
6832;SDS011;3454;42.654;23.378;2023-05-20T10:40:12;5.57;;;4.63;;
6832;SDS011;3454;42.654;23.378;2023-05-20T10:42:39;7.28;;;3.95;;
6832;SDS011;3454;42.654;23.378;2023-05-20T10:45:06;5.85;;;4.00;;
6832;SDS011;3454;42.654;23.378;2023-05-20T10:47:33;5.35;;;3.95;;
6832;SDS011;3454;42.654;23.378;2023-05-20T10:49:59;4.20;;;3.47;;
6832;SDS011;3454;42.654;23.378;2023-05-20T10:52:37;5.47;;;4.40;;
6832;SDS011;3454;42.654;23.378;2023-05-20T10:55:03;6.60;;;4.13;;
6832;SDS011;3454;42.654;23.378;2023-05-20T10:57:29;7.22;;;4.18;;
6832;SDS011;3454;42.654;23.378;2023-05-20T10:59:55;5.72;;;3.97;;
6832;SDS011;3454;42.654;23.378;2023-05-20T11:02:20;10.30;;;4.35;;
6832;SDS011;3454;42.654;23.378;2023-05-20T11:04:52;4.88;;;4.30;;
6832;SDS011;3454;42.654;23.378;2023-05-20T11:07:23;7.22;;;4.40;;
6832;SDS011;3454;42.654;23.378;2023-05-20T11:09:53;5.30;;;4.40;;
6832;SDS011;3454;42.654;23.378;2023-05-20T11:12:20;5.35;;;4.07;;
6832;SDS011;3454;42.654;23.378;2023-05-20T11:14:47;4.70;;;4.28;;
6832;SDS011;3454;42.654;23.378;2023-05-20T11:17:14;5.80;;;4.47;;
6832;SDS011;3454;42.654;23.378;2023-05-20T11:19:41;7.75;;;4.93;;
6832;SDS011;3454;42.654;23.378;2023-05-20T11:22:06;5.65;;;4.18;;
6832;SDS011;3454;42.654;23.378;2023-05-20T11:24:32;5.47;;;4.45;;
6832;SDS011;3454;42.654;23.378;2023-05-20T11:26:58;5.30;;;4.38;;
6832;SDS011;3454;42.654;23.378;2023-05-20T11:29:25;6.60;;;5.18;;
6832;SDS011;3454;42.654;23.378;2023-05-20T11:31:51;5.03;;;4.43;;
6832;SDS011;3454;42.654;23.378;2023-05-20T11:34:20;7.70;;;5.28;;
6832;SDS011;3454;42.654;23.378;2023-05-20T11:36:46;5.60;;;4.35;;
6832;SDS011;3454;42.654;23.378;2023-05-20T11:39:14;7.03;;;5.13;;
6832;SDS011;3454;42.654;23.378;2023-05-20T11:41:40;7.32;;;4.90;;
6832;SDS011;3454;42.654;23.378;2023-05-20T11:44:09;6.53;;;4.65;;
6832;SDS011;3454;42.654;23.378;2023-05-20T11:46:40;6.88;;;4.47;;
6832;SDS011;3454;42.654;23.378;2023-05-20T11:49:07;6.57;;;4.60;;
6832;SDS011;3454;42.654;23.378;2023-05-20T11:51:32;6.93;;;4.50;;
6832;SDS011;3454;42.654;23.378;2023-05-20T11:53:59;4.88;;;4.45;;
6832;SDS011;3454;42.654;23.378;2023-05-20T11:56:27;6.05;;;4.72;;
6832;SDS011;3454;42.654;23.378;2023-05-20T11:59:01;11.15;;;4.78;;
6832;SDS011;3454;42.654;23.378;2023-05-20T12:01:31;7.80;;;5.07;;
6832;SDS011;3454;42.654;23.378;2023-05-20T12:04:01;4.60;;;4.18;;
6832;SDS011;3454;42.654;23.378;2023-05-20T12:06:29;10.35;;;4.45;;
6832;SDS011;3454;42.654;23.378;2023-05-20T12:08:55;6.25;;;4.40;;
6832;SDS011;3454;42.654;23.378;2023-05-20T12:11:20;6.50;;;4.60;;
6832;SDS011;3454;42.654;23.378;2023-05-20T12:13:46;7.07;;;4.43;;
6832;SDS011;3454;42.654;23.378;2023-05-20T12:16:11;6.82;;;4.80;;
6832;SDS011;3454;42.654;23.378;2023-05-20T12:18:37;7.80;;;4.85;;
6832;SDS011;3454;42.654;23.378;2023-05-20T12:21:02;9.02;;;5.25;;
6832;SDS011;3454;42.654;23.378;2023-05-20T12:23:28;7.10;;;3.97;;
6832;SDS011;3454;42.654;23.378;2023-05-20T12:25:57;8.18;;;3.78;;
6832;SDS011;3454;42.654;23.378;2023-05-20T12:28:23;4.95;;;3.75;;
6832;SDS011;3454;42.654;23.378;2023-05-20T12:30:48;6.53;;;3.60;;
6832;SDS011;3454;42.654;23.378;2023-05-20T12:33:14;5.88;;;3.40;;
6832;SDS011;3454;42.654;23.378;2023-05-20T12:35:40;7.10;;;3.70;;
6832;SDS011;3454;42.654;23.378;2023-05-20T12:38:08;6.80;;;3.47;;
6832;SDS011;3454;42.654;23.378;2023-05-20T12:40:34;5.47;;;3.28;;
6832;SDS011;3454;42.654;23.378;2023-05-20T12:43:01;6.07;;;3.35;;
6832;SDS011;3454;42.654;23.378;2023-05-20T12:45:29;12.68;;;3.30;;
6832;SDS011;3454;42.654;23.378;2023-05-20T12:47:55;5.00;;;3.00;;
6832;SDS011;3454;42.654;23.378;2023-05-20T12:50:21;7.30;;;3.60;;
6832;SDS011;3454;42.654;23.378;2023-05-20T12:52:47;6.70;;;4.00;;
6832;SDS011;3454;42.654;23.378;2023-05-20T12:55:13;9.68;;;4.03;;
6832;SDS011;3454;42.654;23.378;2023-05-20T12:57:39;5.75;;;3.20;;
6832;SDS011;3454;42.654;23.378;2023-05-20T13:00:06;6.20;;;3.85;;
6832;SDS011;3454;42.654;23.378;2023-05-20T13:02:32;5.60;;;3.63;;
6832;SDS011;3454;42.654;23.378;2023-05-20T13:04:58;4.78;;;3.30;;
6832;SDS011;3454;42.654;23.378;2023-05-20T13:07:24;5.75;;;3.63;;
6832;SDS011;3454;42.654;23.378;2023-05-20T13:09:51;5.97;;;3.92;;
6832;SDS011;3454;42.654;23.378;2023-05-20T13:12:16;5.43;;;4.03;;
6832;SDS011;3454;42.654;23.378;2023-05-20T13:14:42;6.63;;;4.15;;
6832;SDS011;3454;42.654;23.378;2023-05-20T13:17:14;5.50;;;3.83;;
6832;SDS011;3454;42.654;23.378;2023-05-20T13:19:39;5.65;;;3.20;;
6832;SDS011;3454;42.654;23.378;2023-05-20T13:22:05;4.15;;;3.67;;
6832;SDS011;3454;42.654;23.378;2023-05-20T13:24:31;5.22;;;3.80;;
6832;SDS011;3454;42.654;23.378;2023-05-20T13:26:58;6.22;;;3.88;;
6832;SDS011;3454;42.654;23.378;2023-05-20T13:29:24;6.90;;;4.18;;
6832;SDS011;3454;42.654;23.378;2023-05-20T13:31:50;5.47;;;4.40;;
6832;SDS011;3454;42.654;23.378;2023-05-20T13:34:15;5.28;;;4.30;;
6832;SDS011;3454;42.654;23.378;2023-05-20T13:36:41;4.68;;;3.50;;
6832;SDS011;3454;42.654;23.378;2023-05-20T13:39:06;6.78;;;3.63;;
6832;SDS011;3454;42.654;23.378;2023-05-20T13:41:32;4.95;;;3.50;;
6832;SDS011;3454;42.654;23.378;2023-05-20T13:43:57;5.53;;;4.13;;
6832;SDS011;3454;42.654;23.378;2023-05-20T13:46:23;5.85;;;3.67;;
6832;SDS011;3454;42.654;23.378;2023-05-20T13:48:48;4.78;;;3.80;;
6832;SDS011;3454;42.654;23.378;2023-05-20T13:51:14;4.68;;;4.28;;
6832;SDS011;3454;42.654;23.378;2023-05-20T13:53:39;6.38;;;4.20;;
6832;SDS011;3454;42.654;23.378;2023-05-20T13:56:05;4.60;;;3.78;;
6832;SDS011;3454;42.654;23.378;2023-05-20T13:58:33;4.70;;;3.90;;
6832;SDS011;3454;42.654;23.378;2023-05-20T14:01:02;4.25;;;3.45;;
6832;SDS011;3454;42.654;23.378;2023-05-20T14:03:29;5.20;;;3.97;;
6832;SDS011;3454;42.654;23.378;2023-05-20T14:05:55;4.72;;;4.07;;
6832;SDS011;3454;42.654;23.378;2023-05-20T14:08:21;4.97;;;3.92;;
6832;SDS011;3454;42.654;23.378;2023-05-20T14:10:47;5.57;;;3.97;;
6832;SDS011;3454;42.654;23.378;2023-05-20T14:13:13;6.57;;;3.72;;
6832;SDS011;3454;42.654;23.378;2023-05-20T14:15:38;5.50;;;4.57;;
6832;SDS011;3454;42.654;23.378;2023-05-20T14:18:04;8.25;;;4.68;;
6832;SDS011;3454;42.654;23.378;2023-05-20T14:20:36;6.53;;;4.20;;
6832;SDS011;3454;42.654;23.378;2023-05-20T14:23:01;7.68;;;3.85;;
6832;SDS011;3454;42.654;23.378;2023-05-20T14:25:27;5.82;;;3.72;;
6832;SDS011;3454;42.654;23.378;2023-05-20T14:27:52;4.72;;;4.20;;
6832;SDS011;3454;42.654;23.378;2023-05-20T14:30:18;6.07;;;4.53;;
6832;SDS011;3454;42.654;23.378;2023-05-20T14:32:43;4.43;;;4.03;;
6832;SDS011;3454;42.654;23.378;2023-05-20T14:35:09;7.60;;;4.80;;
6832;SDS011;3454;42.654;23.378;2023-05-20T14:37:34;6.43;;;4.68;;
6832;SDS011;3454;42.654;23.378;2023-05-20T14:40:00;9.50;;;5.38;;
6832;SDS011;3454;42.654;23.378;2023-05-20T14:42:26;5.65;;;4.70;;
6832;SDS011;3454;42.654;23.378;2023-05-20T14:44:51;8.52;;;4.93;;
6832;SDS011;3454;42.654;23.378;2023-05-20T14:47:17;7.43;;;5.05;;
6832;SDS011;3454;42.654;23.378;2023-05-20T14:49:46;5.88;;;4.45;;
6832;SDS011;3454;42.654;23.378;2023-05-20T14:52:14;9.85;;;5.03;;
6832;SDS011;3454;42.654;23.378;2023-05-20T14:54:40;5.38;;;4.88;;
6832;SDS011;3454;42.654;23.378;2023-05-20T14:57:06;7.22;;;4.38;;
6832;SDS011;3454;42.654;23.378;2023-05-20T14:59:31;5.03;;;4.30;;
6832;SDS011;3454;42.654;23.378;2023-05-20T15:01:57;6.03;;;4.60;;
6832;SDS011;3454;42.654;23.378;2023-05-20T15:04:22;8.85;;;5.68;;
6832;SDS011;3454;42.654;23.378;2023-05-20T15:06:48;8.88;;;5.05;;